Etusivu
METAR-TAF:

METAR-TAF

Lentoasemat :

Berlin, Saksa

Tegelin lentoasema

Leveyspiiri: 52-34N, Pituuspiiri: 013-19E, korkeus merenpinnasta: 37 m

Tämänhetkinen sää

Tämä raportti tehtiin 34 minuuttia sitten, kello 07.20 UTC
Tuuli 3 kn koillisesta, vaihdellen pohjoisen ja kaakon välillä
Lämpötila -7°C
Kosteus 73%
Ilmanpaine 1033 hPa
Näkyvyys 10 km tai enemmän
ei pilviä alle 1500 m:ssä eikä cumulonimbus-pilviä

METAR: EDDT 250720Z 05003KT 360V130 CAVOK M07/M11 Q1033 NOSIG

Aika: 08:54 (07:54 UTC)

Sääennuste

Tämä raportti tehtiin 2 tuntia ja 54 minuuttia sitten, kello 05.00 UTC
Ennuste voimassa 25. päivästä klo 06 UTC - 26. päivään klo 06 UTC
Tuuli 6 kn koillisesta
Näkyvyys 10 km tai enemmän
Muutamia pilviä 3000 ft:n korkeudessa
Todennäköisyys 30% :
Ajoittain
25. päivästä klo 21 UTC - 26. päivään klo 03 UTC
Näkyvyys: 4500 m
Hajonneita pilviä 1100 ft:n korkeudessa
heikkoa lumisadetta

TAF: EDDT 250500Z 2506/2606 05006KT 9999 FEW030 PROB30 TEMPO 2521/2603 4500 -SN BKN011

Säähavainnot ja -ennusteet yli 4000 lentoasemalta (METAR- ja TAF-raportit).

Käytössä olevat sääasemat on merkitty karttaan keltaisilla ja punaisilla pisteillä.

Aseta hiiri pisteen päälle nähdäksesi sääaseman nimen.

Klikkaa sitten nähdäksesi säähavainnot ja -ennusteet.

Kartan vaihtaminen: klikkaa mustalla rastilla varustettuja vihreitä pisteitä, niin voit zoomata sisään; viivalla varustettua vihreää pistettä, niin voit zoomata ulos tai vihreitä nuolia, niin pääset viereisille kartoille.


METAR-TAF: